createdAt,value
2022-10-29T00:02:07.103Z,15.90
2022-10-29T00:04:38.352Z,15.85
2022-10-29T00:07:09.623Z,15.81
2022-10-29T00:09:41.088Z,15.70
2022-10-29T00:12:12.373Z,15.70
2022-10-29T00:14:43.629Z,15.60
2022-10-29T00:17:15.828Z,15.58
2022-10-29T00:19:47.090Z,15.52
2022-10-29T00:22:18.365Z,15.46
2022-10-29T00:24:49.745Z,15.42
2022-10-29T00:27:21.021Z,15.36
2022-10-29T00:29:52.403Z,15.31
2022-10-29T00:32:24.251Z,15.24
2022-10-29T00:34:55.520Z,15.21
2022-10-29T00:37:26.878Z,15.16
2022-10-29T00:39:58.128Z,15.09
2022-10-29T00:42:29.403Z,15.08
2022-10-29T00:45:00.935Z,15.04
2022-10-29T00:47:36.808Z,15.02
2022-10-29T00:50:12.413Z,14.98
2022-10-29T00:52:48.108Z,15.00
2022-10-29T00:55:20.128Z,14.99
2022-10-29T00:57:54.636Z,14.91
2022-10-29T01:00:26.297Z,14.90
2022-10-29T01:02:58.212Z,14.89
2022-10-29T01:05:31.519Z,14.86
2022-10-29T01:08:03.814Z,14.83
2022-10-29T01:10:59.083Z,14.82
2022-10-29T01:14:00.815Z,14.81
2022-10-29T01:16:49.855Z,14.80
2022-10-29T01:19:42.135Z,14.77
2022-10-29T01:22:20.698Z,14.74
2022-10-29T01:25:11.775Z,14.75
2022-10-29T01:28:22.000Z,14.81
2022-10-29T01:31:15.417Z,14.87
2022-10-29T01:33:55.826Z,14.92
2022-10-29T01:36:49.772Z,14.97
2022-10-29T01:39:26.636Z,14.97
2022-10-29T01:42:13.811Z,14.94
2022-10-29T01:44:54.068Z,14.91
2022-10-29T01:47:30.660Z,14.90
2022-10-29T01:50:05.035Z,14.88
2022-10-29T01:52:38.565Z,14.85
2022-10-29T01:55:09.898Z,14.81
2022-10-29T01:57:41.176Z,14.80
2022-10-29T02:00:17.303Z,14.71
2022-10-29T02:02:51.616Z,14.74
2022-10-29T02:05:32.996Z,14.68
2022-10-29T02:08:21.026Z,14.63
2022-10-29T02:10:58.099Z,14.61
2022-10-29T02:13:38.951Z,14.59
2022-10-29T02:16:11.571Z,14.61
2022-10-29T02:18:46.065Z,14.60
2022-10-29T02:21:18.755Z,14.55
2022-10-29T02:23:50.392Z,14.46
2022-10-29T02:26:22.130Z,14.46
2022-10-29T02:28:53.545Z,14.34
2022-10-29T02:31:31.397Z,14.34
2022-10-29T02:34:02.902Z,14.22
2022-10-29T02:36:34.224Z,14.19
2022-10-29T02:39:05.507Z,14.15
2022-10-29T02:41:36.803Z,14.10
2022-10-29T02:44:08.256Z,14.04
2022-10-29T02:46:40.294Z,14.03
2022-10-29T02:49:11.564Z,13.99
2022-10-29T02:51:42.887Z,13.96
2022-10-29T02:54:14.180Z,13.92
2022-10-29T02:56:45.469Z,13.96
2022-10-29T02:59:16.828Z,14.02
2022-10-29T03:01:48.311Z,14.10
2022-10-29T03:04:19.721Z,14.15
2022-10-29T03:06:51.083Z,14.20
2022-10-29T03:09:22.471Z,14.36
2022-10-29T03:11:53.762Z,14.42
2022-10-29T03:14:25.072Z,14.47
2022-10-29T03:16:56.336Z,14.52
2022-10-29T03:19:27.593Z,14.50
2022-10-29T03:21:58.848Z,14.34
2022-10-29T03:24:30.450Z,14.47
2022-10-29T03:27:01.777Z,14.43
2022-10-29T03:29:33.050Z,14.37
2022-10-29T03:32:04.606Z,14.35
2022-10-29T03:34:35.900Z,14.28
2022-10-29T03:37:07.162Z,14.20
2022-10-29T03:39:38.425Z,14.12
2022-10-29T03:42:09.756Z,14.09
2022-10-29T03:44:41.036Z,14.03
2022-10-29T03:47:12.280Z,13.98
2022-10-29T03:49:43.537Z,13.94
2022-10-29T03:52:14.989Z,13.99
2022-10-29T03:54:46.304Z,14.00
2022-10-29T03:57:17.563Z,13.97
2022-10-29T03:59:51.646Z,14.04
2022-10-29T04:02:24.969Z,14.04
2022-10-29T04:04:56.418Z,14.00
2022-10-29T04:07:27.680Z,13.91
2022-10-29T04:09:58.980Z,13.90
2022-10-29T04:12:30.370Z,13.89
2022-10-29T04:15:01.848Z,13.89
2022-10-29T04:17:33.128Z,13.89
2022-10-29T04:20:10.021Z,13.89
2022-10-29T04:28:42.845Z,13.87
2022-10-29T04:31:14.800Z,13.85
2022-10-29T04:33:46.356Z,13.89
2022-10-29T04:36:17.624Z,13.91
2022-10-29T04:38:50.202Z,13.92
2022-10-29T04:41:21.530Z,14.06
2022-10-29T04:43:52.818Z,14.07
2022-10-29T04:46:24.059Z,14.12
2022-10-29T04:48:55.387Z,14.09
2022-10-29T04:51:27.135Z,14.02
2022-10-29T04:53:58.413Z,13.98
2022-10-29T04:56:30.776Z,13.90
2022-10-29T04:59:02.112Z,13.81
2022-10-29T05:01:33.479Z,13.78
2022-10-29T05:04:05.010Z,13.73
2022-10-29T05:06:36.440Z,13.61
2022-10-29T05:09:07.742Z,13.56
2022-10-29T05:11:39.029Z,13.50
2022-10-29T05:14:10.345Z,13.44
2022-10-29T05:16:41.771Z,13.44
2022-10-29T05:19:13.060Z,13.39
2022-10-29T05:21:44.320Z,13.46
2022-10-29T05:24:15.554Z,13.47
2022-10-29T05:26:46.808Z,13.50
2022-10-29T05:29:18.167Z,13.53
2022-10-29T05:31:49.437Z,13.50
2022-10-29T05:34:21.436Z,13.61
2022-10-29T05:36:52.812Z,13.64
2022-10-29T05:39:24.201Z,13.69
2022-10-29T05:41:55.482Z,13.74
2022-10-29T05:44:26.751Z,13.79
2022-10-29T05:46:58.006Z,13.81
2022-10-29T05:49:29.283Z,13.87
2022-10-29T05:52:00.691Z,13.96
2022-10-29T05:54:32.004Z,14.02
2022-10-29T05:57:03.355Z,14.06
2022-10-29T05:59:34.603Z,14.08
2022-10-29T06:02:06.465Z,14.15
2022-10-29T06:04:37.789Z,14.18
2022-10-29T06:07:09.158Z,14.22
2022-10-29T06:09:40.399Z,14.26
2022-10-29T06:12:11.653Z,14.31
2022-10-29T06:14:42.981Z,14.33
2022-10-29T06:17:14.240Z,14.37
2022-10-29T06:19:45.510Z,14.40
2022-10-29T06:22:16.783Z,14.44
2022-10-29T06:24:48.042Z,14.48
2022-10-29T06:27:19.288Z,14.50
2022-10-29T06:29:50.524Z,14.54
2022-10-29T06:32:21.922Z,14.53
2022-10-29T06:34:53.166Z,14.58
2022-10-29T06:37:24.544Z,14.63
2022-10-29T06:39:55.804Z,14.65
2022-10-29T06:42:27.072Z,14.68
2022-10-29T06:44:58.306Z,14.71
2022-10-29T06:47:29.611Z,14.67
2022-10-29T06:50:00.877Z,14.76
2022-10-29T06:52:32.123Z,14.77
2022-10-29T06:55:05.212Z,14.79
2022-10-29T06:57:37.102Z,14.84
2022-10-29T07:00:09.325Z,14.89
2022-10-29T07:02:40.568Z,14.95
2022-10-29T07:05:11.860Z,15.00
2022-10-29T07:07:43.139Z,15.05
2022-10-29T07:10:14.564Z,15.07
2022-10-29T07:12:45.893Z,15.14
2022-10-29T07:15:17.600Z,15.20
2022-10-29T07:18:08.175Z,15.25
2022-10-29T07:20:42.300Z,15.30
2022-10-29T07:23:14.017Z,15.33
2022-10-29T07:25:45.483Z,15.38
2022-10-29T07:28:23.026Z,15.42
2022-10-29T07:30:59.900Z,15.50
2022-10-29T07:33:31.293Z,15.55
2022-10-29T07:36:02.651Z,15.63
2022-10-29T07:38:33.924Z,15.67
2022-10-29T07:41:05.407Z,15.72
2022-10-29T07:43:36.736Z,15.72
2022-10-29T07:46:08.143Z,15.76
2022-10-29T07:48:39.421Z,15.80
2022-10-29T07:51:10.714Z,15.90
2022-10-29T07:53:41.958Z,15.84
2022-10-29T07:56:13.269Z,15.94
2022-10-29T07:58:44.603Z,15.97
2022-10-29T08:01:16.024Z,16.02
2022-10-29T08:03:50.039Z,15.96
2022-10-29T08:06:21.296Z,16.14
2022-10-29T08:08:52.883Z,16.24
2022-10-29T08:11:24.253Z,16.31
2022-10-29T08:13:55.564Z,16.40
2022-10-29T08:16:26.964Z,16.46
2022-10-29T08:18:58.272Z,16.49
2022-10-29T08:21:29.527Z,16.54
2022-10-29T08:24:00.990Z,16.58
2022-10-29T08:26:33.111Z,16.63
2022-10-29T08:29:04.788Z,16.69
2022-10-29T08:31:36.082Z,16.73
2022-10-29T08:34:11.124Z,16.79
2022-10-29T08:36:42.793Z,16.88
2022-10-29T08:39:14.048Z,17.02
2022-10-29T08:42:24.246Z,17.06
2022-10-29T08:45:15.388Z,17.10
2022-10-29T08:48:08.560Z,17.16
2022-10-29T08:50:44.636Z,17.23
2022-10-29T08:53:26.708Z,17.30
2022-10-29T08:56:05.016Z,17.30
2022-10-29T08:58:54.391Z,17.29
2022-10-29T09:01:28.593Z,17.28
2022-10-29T09:03:59.973Z,17.30
2022-10-29T09:06:40.628Z,17.37
2022-10-29T09:09:43.260Z,17.45
2022-10-29T09:12:36.196Z,17.47
2022-10-29T09:15:35.278Z,17.48
2022-10-29T09:18:29.236Z,17.40
2022-10-29T09:21:52.514Z,17.24
2022-10-29T09:24:45.044Z,17.14
2022-10-29T09:27:48.506Z,17.02
2022-10-29T09:30:20.963Z,16.89
2022-10-29T09:33:17.309Z,16.86
2022-10-29T09:35:54.289Z,16.83
2022-10-29T09:38:31.696Z,16.85
2022-10-29T09:41:04.380Z,17.03
2022-10-29T09:43:50.553Z,17.23
2022-10-29T09:46:35.885Z,17.49
2022-10-29T09:49:47.209Z,17.77
2022-10-29T09:52:32.806Z,17.98
2022-10-29T09:55:06.560Z,18.15
2022-10-29T09:57:40.151Z,18.26
2022-10-29T10:00:23.997Z,18.36
2022-10-29T10:03:10.457Z,18.43
2022-10-29T10:06:01.995Z,18.52
2022-10-29T10:08:34.782Z,18.56
2022-10-29T10:11:07.260Z,18.58
2022-10-29T10:13:52.522Z,18.72
2022-10-29T10:16:26.531Z,18.75
2022-10-29T10:18:58.499Z,18.77
2022-10-29T10:21:33.862Z,18.77
2022-10-29T10:24:30.805Z,18.75
2022-10-29T10:27:29.279Z,18.72
2022-10-29T10:30:03.730Z,18.75
2022-10-29T10:32:35.030Z,18.85
2022-10-29T10:35:30.075Z,19.01
2022-10-29T10:38:08.328Z,19.10
2022-10-29T10:40:42.115Z,19.27
2022-10-29T10:43:21.260Z,19.38
2022-10-29T10:46:10.238Z,19.48
2022-10-29T10:48:42.094Z,19.65
2022-10-29T10:51:36.063Z,19.86
2022-10-29T10:54:27.470Z,20.05
2022-10-29T10:57:19.705Z,20.36
2022-10-29T11:00:03.446Z,20.53
2022-10-29T11:02:53.719Z,20.58
2022-10-29T11:05:35.405Z,20.58
2022-10-29T11:08:15.990Z,20.64
2022-10-29T11:10:55.052Z,20.67
2022-10-29T11:13:31.905Z,20.70
2022-10-29T11:16:19.318Z,20.71
2022-10-29T11:19:15.770Z,20.73
2022-10-29T11:21:59.035Z,20.68
2022-10-29T11:24:57.220Z,20.67
2022-10-29T11:27:41.100Z,20.64
2022-10-29T11:30:15.902Z,20.72
2022-10-29T11:32:53.182Z,20.80
2022-10-29T11:35:55.005Z,20.92
2022-10-29T11:38:59.012Z,21.03
2022-10-29T11:42:00.335Z,21.12
2022-10-29T11:44:37.656Z,21.24
2022-10-29T11:47:30.231Z,21.35
2022-10-29T11:50:14.888Z,21.44
2022-10-29T11:52:56.049Z,21.43
2022-10-29T11:55:41.744Z,21.49
2022-10-29T11:58:25.048Z,21.52
2022-10-29T12:00:56.291Z,21.57
2022-10-29T12:04:03.239Z,21.61
2022-10-29T12:06:40.655Z,21.72
2022-10-29T12:09:33.277Z,21.76
2022-10-29T12:12:17.265Z,21.64
2022-10-29T12:15:01.295Z,21.48
2022-10-29T12:17:51.293Z,21.38
2022-10-29T12:20:36.932Z,21.30
2022-10-29T12:23:35.683Z,21.32
2022-10-29T12:26:14.563Z,21.36
2022-10-29T12:28:56.263Z,21.44
2022-10-29T12:31:27.519Z,21.49
2022-10-29T12:34:06.450Z,21.54
2022-10-29T12:36:45.510Z,21.58
2022-10-29T12:39:31.229Z,21.58
2022-10-29T12:42:07.598Z,21.57
2022-10-29T12:44:56.157Z,21.56
2022-10-29T12:47:52.404Z,21.53
2022-10-29T12:50:35.142Z,21.56
2022-10-29T12:53:29.443Z,21.55
2022-10-29T12:56:03.329Z,21.61
2022-10-29T12:58:45.847Z,21.65
2022-10-29T13:01:38.379Z,21.68
2022-10-29T13:04:32.137Z,21.69
2022-10-29T13:07:18.372Z,21.67
2022-10-29T13:09:49.588Z,21.66
2022-10-29T13:12:54.776Z,21.58
2022-10-29T13:15:34.217Z,21.49
2022-10-29T13:18:22.690Z,21.37
2022-10-29T13:20:54.833Z,21.33
2022-10-29T13:23:27.464Z,21.32
2022-10-29T13:25:59.470Z,21.29
2022-10-29T13:28:30.672Z,21.34
2022-10-29T13:31:01.891Z,21.50
2022-10-29T13:33:33.086Z,21.71
2022-10-29T13:36:25.504Z,21.94
2022-10-29T13:39:07.339Z,22.15
2022-10-29T13:41:48.833Z,22.22
2022-10-29T13:44:24.972Z,22.14
2022-10-29T13:47:02.488Z,22.11
2022-10-29T13:49:36.747Z,22.18
2022-10-29T13:52:15.931Z,22.19
2022-10-29T13:54:50.993Z,22.19
2022-10-29T13:57:31.010Z,22.22
2022-10-29T14:00:06.923Z,22.24
2022-10-29T14:03:02.471Z,22.26
2022-10-29T14:05:52.438Z,22.24
2022-10-29T14:08:49.047Z,22.15
2022-10-29T14:11:27.420Z,22.12
2022-10-29T14:14:02.755Z,22.09
2022-10-29T14:16:34.053Z,22.05
2022-10-29T14:19:20.247Z,22.06
2022-10-29T14:21:52.928Z,22.08
2022-10-29T14:24:24.181Z,22.06
2022-10-29T14:27:07.489Z,22.04
2022-10-29T14:29:39.386Z,22.03
2022-10-29T14:32:19.608Z,22.00
2022-10-29T14:34:51.777Z,22.03
2022-10-29T14:37:37.433Z,22.08
2022-10-29T14:40:26.674Z,22.05
2022-10-29T14:42:58.375Z,22.10
2022-10-29T14:45:31.077Z,22.05
2022-10-29T14:48:09.850Z,21.96
2022-10-29T14:50:47.078Z,21.93
2022-10-29T14:53:31.972Z,21.85
2022-10-29T14:56:09.654Z,21.78
2022-10-29T14:58:41.368Z,21.71
2022-10-29T15:01:15.593Z,21.62
2022-10-29T15:03:48.057Z,21.52
2022-10-29T15:06:25.391Z,21.46
2022-10-29T15:09:01.263Z,21.38
2022-10-29T15:11:33.005Z,21.33
2022-10-29T15:14:24.387Z,21.21
2022-10-29T15:16:55.710Z,21.14
2022-10-29T15:19:28.071Z,21.07
2022-10-29T15:21:59.433Z,21.01
2022-10-29T15:24:30.810Z,20.92
2022-10-29T15:27:03.242Z,20.79
2022-10-29T15:29:43.101Z,20.57
2022-10-29T15:32:17.387Z,20.36
2022-10-29T15:34:52.152Z,20.30
2022-10-29T15:37:32.295Z,20.14
2022-10-29T15:40:14.701Z,19.98
2022-10-29T15:42:46.604Z,19.81
2022-10-29T15:45:21.079Z,19.64
2022-10-29T15:47:55.050Z,19.52
2022-10-29T15:50:37.698Z,19.38
2022-10-29T15:53:13.955Z,19.25
2022-10-29T15:55:45.469Z,19.18
2022-10-29T15:58:22.613Z,19.09
2022-10-29T16:00:53.921Z,19.03
2022-10-29T16:03:26.926Z,18.98
2022-10-29T16:06:04.437Z,18.94
2022-10-29T16:08:38.777Z,18.92
2022-10-29T16:11:20.020Z,18.90
2022-10-29T16:13:55.203Z,18.88
2022-10-29T16:16:30.345Z,18.87
2022-10-29T16:19:01.668Z,18.85
2022-10-29T16:21:33.008Z,18.85
2022-10-29T16:24:04.537Z,18.85
2022-10-29T16:26:35.785Z,18.83
2022-10-29T16:29:07.132Z,18.80
2022-10-29T16:31:38.460Z,18.79
2022-10-29T16:34:13.505Z,18.78
2022-10-29T16:36:44.765Z,18.73
2022-10-29T16:39:16.042Z,18.67
2022-10-29T16:41:47.285Z,18.59
2022-10-29T16:44:18.575Z,18.46
2022-10-29T16:46:49.811Z,18.34
2022-10-29T16:49:21.095Z,18.20
2022-10-29T16:51:52.335Z,18.07
2022-10-29T16:54:23.661Z,17.95
2022-10-29T16:56:55.124Z,17.84
2022-10-29T16:59:26.490Z,17.74
2022-10-29T17:01:57.727Z,17.65
2022-10-29T17:04:29.148Z,17.56
2022-10-29T17:07:01.272Z,17.49
2022-10-29T17:09:35.211Z,17.43
2022-10-29T17:12:06.696Z,17.36
2022-10-29T17:14:37.983Z,17.35
2022-10-29T17:17:09.250Z,17.32
2022-10-29T17:19:40.505Z,17.30
2022-10-29T17:22:15.819Z,17.28
2022-10-29T17:24:47.092Z,17.25
2022-10-29T17:27:18.384Z,17.22
2022-10-29T17:29:49.793Z,17.19
2022-10-29T17:32:21.104Z,17.16
2022-10-29T17:34:52.501Z,17.12
2022-10-29T17:37:23.762Z,17.06
2022-10-29T17:39:55.160Z,16.96
2022-10-29T17:42:27.020Z,16.93
2022-10-29T17:44:58.335Z,16.93
2022-10-29T17:47:29.914Z,16.93
2022-10-29T17:50:01.279Z,16.91
2022-10-29T17:52:32.528Z,16.95
2022-10-29T17:55:04.125Z,16.81
2022-10-29T17:57:35.366Z,16.92
2022-10-29T18:00:07.353Z,16.88
2022-10-29T18:02:38.725Z,16.84
2022-10-29T18:05:10.051Z,16.80
2022-10-29T18:07:41.305Z,16.75
2022-10-29T18:10:12.975Z,16.73
2022-10-29T18:12:44.279Z,16.69
2022-10-29T18:15:15.604Z,16.62
2022-10-29T18:17:46.891Z,16.57
2022-10-29T18:20:18.263Z,16.51
2022-10-29T18:22:53.288Z,16.46
2022-10-29T18:25:27.058Z,16.42
2022-10-29T18:27:58.356Z,16.37
2022-10-29T18:30:29.624Z,16.31
2022-10-29T18:33:01.390Z,16.25
2022-10-29T18:35:33.180Z,16.20
2022-10-29T18:38:04.633Z,16.16
2022-10-29T18:40:35.996Z,16.18
2022-10-29T18:43:07.310Z,16.17
2022-10-29T18:45:38.576Z,16.14
2022-10-29T18:48:10.045Z,16.14
2022-10-29T18:50:41.391Z,16.13
2022-10-29T18:53:12.783Z,16.08
2022-10-29T18:55:54.308Z,16.09
2022-10-29T18:58:25.598Z,16.08
2022-10-29T19:01:07.266Z,16.03
2022-10-29T19:03:39.398Z,16.07
2022-10-29T19:06:13.200Z,16.08
2022-10-29T19:08:44.896Z,16.13
2022-10-29T19:11:18.983Z,16.18
2022-10-29T19:13:52.121Z,16.24
2022-10-29T19:16:27.263Z,16.27
2022-10-29T19:19:07.715Z,16.28
2022-10-29T19:21:40.759Z,16.29
2022-10-29T19:24:15.078Z,16.27
2022-10-29T19:26:46.787Z,16.20
2022-10-29T19:29:18.199Z,16.24
2022-10-29T19:31:49.452Z,16.22
2022-10-29T19:34:20.974Z,16.18
2022-10-29T19:36:53.550Z,16.17
2022-10-29T19:39:24.839Z,16.09
2022-10-29T19:41:56.099Z,16.06
2022-10-29T19:44:27.404Z,16.01
2022-10-29T19:46:58.658Z,15.96
2022-10-29T19:49:30.018Z,15.88
2022-10-29T19:52:01.324Z,15.84
2022-10-29T19:54:32.588Z,15.84
2022-10-29T19:57:04.037Z,15.78
2022-10-29T19:59:35.301Z,15.77
2022-10-29T20:02:06.656Z,15.74
2022-10-29T20:04:37.954Z,15.66
2022-10-29T20:07:09.290Z,15.66
2022-10-29T20:09:40.590Z,15.69
2022-10-29T20:12:11.978Z,15.70
2022-10-29T20:14:43.341Z,15.72
2022-10-29T20:17:14.721Z,15.74
2022-10-29T20:19:45.964Z,15.76
2022-10-29T20:22:17.249Z,15.74
2022-10-29T20:24:48.591Z,15.76
2022-10-29T20:27:19.889Z,15.74
2022-10-29T20:29:51.144Z,15.73
2022-10-29T20:32:22.500Z,15.72
2022-10-29T20:34:53.796Z,15.70
2022-10-29T20:37:25.052Z,15.66
2022-10-29T20:39:56.354Z,15.64
2022-10-29T20:42:27.667Z,15.62
2022-10-29T20:44:58.911Z,15.59
2022-10-29T20:47:30.229Z,15.60
2022-10-29T20:50:01.616Z,15.59
2022-10-29T20:52:32.893Z,15.58
2022-10-29T20:55:04.669Z,15.57
2022-10-29T20:57:36.089Z,15.58
2022-10-29T21:00:08.084Z,15.57
2022-10-29T21:02:39.434Z,15.53
2022-10-29T21:05:10.821Z,15.56
2022-10-29T21:07:42.148Z,15.55
2022-10-29T21:10:13.589Z,15.51
2022-10-29T21:12:44.949Z,15.47
2022-10-29T21:15:16.208Z,15.39
2022-10-29T21:17:47.493Z,15.36
2022-10-29T21:20:18.752Z,15.30
2022-10-29T21:22:50.422Z,15.26
2022-10-29T21:25:21.738Z,15.20
2022-10-29T21:27:54.258Z,15.12
2022-10-29T21:30:25.819Z,15.08
2022-10-29T21:32:57.179Z,15.01
2022-10-29T21:35:28.542Z,14.99
2022-10-29T21:38:00.289Z,14.99
2022-10-29T21:40:31.693Z,14.99
2022-10-29T21:43:02.964Z,15.01
2022-10-29T21:45:34.322Z,15.04
2022-10-29T21:48:05.960Z,15.04
2022-10-29T21:50:37.799Z,15.04
2022-10-29T21:53:09.833Z,15.03
2022-10-29T21:55:41.189Z,14.98
2022-10-29T21:58:12.532Z,14.99
2022-10-29T22:00:43.784Z,14.97
2022-10-29T22:03:15.025Z,14.94
2022-10-29T22:05:46.535Z,14.96
2022-10-29T22:08:18.063Z,14.94
2022-10-29T22:10:49.355Z,14.93
2022-10-29T22:13:20.615Z,14.93
2022-10-29T22:15:51.877Z,14.93
2022-10-29T22:18:24.043Z,14.96
2022-10-29T22:21:23.168Z,15.00
2022-10-29T22:23:57.003Z,14.98
2022-10-29T22:26:29.817Z,15.02
2022-10-29T22:29:01.081Z,15.04
2022-10-29T22:31:32.440Z,15.04
2022-10-29T22:34:03.748Z,15.05
2022-10-29T22:36:35.050Z,15.04
2022-10-29T22:39:06.510Z,15.01
2022-10-29T22:41:37.777Z,14.93
2022-10-29T22:44:09.152Z,14.94
2022-10-29T22:46:40.416Z,14.93
2022-10-29T22:49:14.593Z,14.86
2022-10-29T22:51:45.942Z,14.90
2022-10-29T22:54:17.192Z,14.87
2022-10-29T22:56:48.522Z,14.89
2022-10-29T22:59:19.783Z,14.88
2022-10-29T23:01:51.153Z,14.87
2022-10-29T23:04:22.606Z,14.86
2022-10-29T23:06:55.700Z,14.82
2022-10-29T23:09:30.569Z,14.79
2022-10-29T23:12:01.848Z,14.84
2022-10-29T23:14:33.097Z,14.82
2022-10-29T23:17:04.345Z,14.81
2022-10-29T23:19:35.721Z,14.70
2022-10-29T23:22:07.030Z,14.76
2022-10-29T23:24:38.373Z,14.72
2022-10-29T23:27:09.624Z,14.68
2022-10-29T23:29:41.012Z,14.64
2022-10-29T23:32:12.317Z,14.59
2022-10-29T23:34:43.606Z,14.58
2022-10-29T23:37:14.904Z,14.55
2022-10-29T23:39:46.168Z,14.54
2022-10-29T23:42:17.411Z,14.48
2022-10-29T23:44:48.775Z,14.49
2022-10-29T23:47:20.066Z,14.47
2022-10-29T23:49:51.351Z,14.36
2022-10-29T23:52:22.646Z,14.43
2022-10-29T23:54:53.974Z,14.40
2022-10-29T23:57:25.227Z,14.39
2022-10-29T23:59:56.502Z,14.37
